Ana Sayfa
METAR-TAF:

METAR-TAF

Havaalanları :

Terrell County Airport

Dryden, Teksas, Amerika Birleşik Devletleri

Enlem: 30-02-53N, Boylam: 102-12-47W, yükseklik: 707 m

Güncel hava durumu gözlemi

Rapor saat 03:53 UTC de 51 dakika önce yapıldı.
Rüzgar doğudan 12 kt
Sıcaklık 27°C
Nem 58%
Basınç 1011 hPa

METAR: K6R6 160353Z AUTO 08012KT 27/18 A2984 RMK AO1 SLP064 T02670178 $

Saat: 23:44 (04:44 UTC)


TAF: eksik

4.000'den fazla havaalanı için hava durumu gözlemleri ve tahminleri (METAR ve TAF raporları).

Kullanılabilir istasyonlar harita üzerinde sarı ve kırmızı noktalarla gösterilir.

İstasyonun adını görmek için fareyi noktanın üzerinde gezdirin.

Sonrasında hava gözlem ve tahminlerini görmek için tıklayın.

Haritayı değiştirmek için: yaklaştırmak için siyah artı işaretli yeşil düğmeye ve uzaklaştırmak için de eksi işaretli düğmeye hızla tıklayın; bitişik haritalar için yeşil okları kullanın.


METAR-TAF: